Date,TemperatureHighF,TemperatureAvgF,TemperatureLowF,DewpointHighF,DewpointAvgF,DewpointLowF,HumidityHigh,HumidityAvg,HumidityLow,PressureMaxIn,PressureMinIn,WindSpeedMaxMPH,WindSpeedAvgMPH,GustSpeedMaxMPH,PrecipitationSumIn
2013-1-1,65,54,46,65,53,44,100,96,90,30.19,29.91,7,0,8,2.12
2013-1-2,46,42,39,44,40,37,94,91,87,30.31,30.17,6,0,7,0.00
2013-1-3,56,44,33,41,37,32,98,78,47,30.42,30.29,8,0,8,0.00
2013-1-4,49,45,41,41,38,37,89,77,66,30.51,30.34,6,0,6,0.00
2013-1-5,45,44,42,44,43,40,99,97,86,30.40,30.25,4,0,4,0.54
2013-1-6,59,46,35,48,43,35,99,90,62,30.35,30.24,7,0,7,0.00
2013-1-7,59,45,33,46,41,32,100,86,58,30.33,30.12,6,0,6,0.00
2013-1-8,63,55,48,63,54,45,100,96,85,30.12,29.93,11,1,11,0.56
2013-1-9,67,64,61,67,64,61,100,99,98,30.06,29.90,12,1,12,1.26
2013-1-10,69,61,51,65,59,50,100,94,71,30.09,29.93,9,0,10,0.31
2013-1-11,74,58,43,64,54,43,100,87,52,30.05,29.91,7,0,7,0.00
2013-1-12,74,72,65,72,71,65,100,95,89,29.92,29.74,12,2,15,0.07
2013-1-13,72,50,42,70,48,41,99,94,88,30.14,29.78,10,1,13,0.36
2013-1-14,44,41,38,42,39,37,98,94,91,30.24,30.06,9,1,9,0.23
2013-1-15,39,36,34,37,35,33,98,96,93,30.15,30.03,7,0,8,0.05
2013-1-16,53,40,31,39,33,28,97,79,44,30.26,30.11,10,0,13,0.00
2013-1-17,63,41,26,41,33,26,99,77,38,30.47,30.25,11,0,11,0.00
2013-1-18,63,43,31,42,35,29,100,78,29,30.56,30.38,5,0,6,0.00
2013-1-19,68,46,30,51,42,30,100,86,47,30.38,30.20,7,0,9,0.00
2013-1-20,72,51,37,55,46,37,100,85,47,30.29,30.12,8,0,8,0.00
2013-1-21,72,52,40,55,47,39,100,86,49,30.25,30.15,4,0,5,0.00
2013-1-22,70,52,40,53,46,39,98,83,52,30.36,30.22,9,0,9,0.00
2013-1-23,74,56,40,60,51,40,100,86,55,30.37,30.24,12,0,12,0.00
2013-1-24,72,62,54,67,60,53,100,95,81,30.31,30.16,10,0,10,0.00
2013-1-25,78,65,58,66,61,57,100,89,61,30.21,30.08,14,1,14,0.00
2013-1-26,78,63,56,67,60,55,100,89,57,30.22,30.11,10,0,10,0.00
2013-1-27,75,65,56,66,62,55,100,90,73,30.17,30.08,12,1,12,0.00
2013-1-28,78,70,66,68,67,64,96,88,70,30.14,30.00,13,1,13,0.00
2013-1-29,76,72,59,72,69,58,97,93,84,30.01,29.65,18,2,19,0.48
2013-1-30,59,52,35,58,40,31,98,66,37,30.23,29.74,20,2,22,0.04
2013-1-31,66,48,30,43,34,28,99,65,28,30.32,30.21,12,1,12,0.00
2013-2-1,71,54,42,48,43,37,97,72,31,30.39,30.26,9,0,9,0.00
2013-2-2,74,56,41,58,50,41,100,83,49,30.28,30.17,10,0,10,0.00
2013-2-3,73,55,42,52,42,31,100,71,22,30.33,30.08,9,0,9,0.00
2013-2-4,67,57,44,63,55,43,99,93,83,30.09,29.87,5,0,5,0.01
2013-2-5,78,66,61,68,63,60,100,91,61,30.02,29.89,4,0,4,0.00
2013-2-6,63,61,59,63,61,59,100,98,96,30.07,29.87,10,0,10,0.86
2013-2-7,66,61,54,62,59,54,100,95,85,29.99,29.89,4,0,5,0.00
2013-2-8,63,59,50,60,55,48,99,88,74,30.17,29.98,9,0,9,0.00
2013-2-9,66,56,45,65,54,44,99,93,84,30.17,29.91,11,1,11,0.00
2013-2-10,74,66,60,71,64,58,98,94,81,29.97,29.79,22,1,22,0.15
2013-2-11,61,54,52,60,52,48,98,92,73,30.11,29.96,11,1,11,0.16
2013-2-12,60,56,52,60,55,51,100,98,94,30.01,29.79,9,0,9,0.20
2013-2-13,61,50,38,51,44,37,98,81,53,30.11,29.94,10,0,11,0.00
2013-2-14,67,47,31,46,39,31,100,78,36,30.17,30.05,8,0,8,0.00
2013-2-15,68,50,35,50,41,34,100,75,39,30.31,30.11,10,0,10,0.00
2013-2-16,60,45,31,36,31,24,95,62,29,30.43,30.25,13,0,13,0.00
2013-2-17,70,51,33,48,42,32,99,74,39,30.27,30.10,14,1,16,0.00
2013-2-18,72,64,48,64,59,46,98,84,72,30.10,29.84,16,2,16,0.56
2013-2-19,68,54,41,54,42,33,99,71,29,30.26,30.05,9,1,10,0.00
2013-2-20,60,57,56,49,45,36,75,65,41,30.09,29.87,11,2,13,0.00
2013-2-21,76,64,55,72,61,49,99,90,76,29.87,29.66,16,2,16,0.02
2013-2-22,65,57,52,56,52,49,99,86,64,30.00,29.84,7,0,8,0.00
2013-2-23,70,55,46,53,48,44,95,79,48,30.00,29.89,6,0,6,0.00
2013-2-24,70,56,42,54,49,41,99,77,53,29.97,29.69,7,0,7,0.00
2013-2-25,76,63,48,69,50,26,99,69,17,29.69,29.44,24,2,26,0.00
2013-2-26,64,51,42,43,38,33,90,63,41,29.94,29.69,20,2,23,0.00
2013-2-27,73,53,39,52,40,31,99,67,29,30.14,29.92,20,1,23,0.00
2013-2-28,58,44,36,38,33,29,95,67,37,30.27,30.12,9,0,9,0.00
2013-3-1,64,47,31,38,32,28,96,63,29,30.27,30.12,13,1,14,0.00
2013-3-2,54,42,30,34,30,26,93,67,36,30.34,30.22,15,0,15,0.00
2013-3-3,68,46,27,42,33,26,98,66,29,30.30,30.03,11,1,11,0.00
2013-3-4,77,64,44,62,57,42,95,80,59,30.04,29.80,23,2,24,0.00
2013-3-5,71,62,40,63,47,30,95,61,26,30.31,29.82,13,1,15,0.00
2013-3-6,69,48,30,39,32,22,93,60,18,30.42,30.24,8,0,8,0.00
2013-3-7,71,51,34,47,40,33,97,70,35,30.33,30.19,8,0,8,0.00
2013-3-8,74,58,41,59,51,40,97,79,51,30.26,30.10,9,1,9,0.00
2013-3-9,74,65,56,64,60,53,97,87,70,30.10,29.83,16,2,16,0.00
2013-3-10,69,60,50,65,57,41,98,90,68,30.04,29.76,13,1,15,0.38
2013-3-11,63,50,38,41,37,32,93,64,33,30.12,29.97,13,1,13,0.00
2013-3-12,73,50,31,44,36,30,99,66,24,30.27,30.09,6,0,7,0.00
2013-3-13,75,54,37,44,38,30,99,64,20,30.45,30.27,10,0,10,0.00
2013-3-14,75,56,38,46,41,36,96,64,30,30.44,30.28,12,1,12,0.00
2013-3-15,79,61,42,60,52,41,99,76,41,30.30,30.08,15,1,15,0.00
2013-3-16,80,67,57,63,59,57,98,79,49,30.08,29.88,15,2,18,0.00
2013-3-17,80,68,59,68,64,58,99,86,60,29.91,29.73,17,1,17,0.00
2013-3-18,89,76,68,71,68,63,96,79,49,29.91,29.72,13,1,13,0.00
2013-3-19,82,69,54,64,55,42,93,63,40,30.01,29.90,9,1,10,0.00
2013-3-20,75,61,48,56,46,33,97,62,24,30.20,29.98,13,1,13,0.05
2013-3-21,72,60,47,59,49,40,86,69,42,30.06,29.74,11,1,14,0.00
2013-3-22,84,73,63,71,67,59,96,84,59,29.77,29.66,13,1,13,0.00
2013-3-23,74,69,66,70,68,62,98,95,87,29.75,29.58,6,0,7,0.00
2013-3-24,65,57,39,62,45,33,98,68,34,30.12,29.64,17,1,18,0.00
2013-3-25,63,46,31,34,29,24,97,58,23,30.36,30.13,11,0,13,0.00
2013-3-26,63,46,28,34,27,23,91,53,24,30.49,30.33,14,0,14,0.00
2013-3-27,70,50,31,44,38,30,97,68,33,30.41,30.22,10,1,11,0.00
2013-3-28,74,60,48,58,52,44,96,77,53,30.31,30.20,8,1,8,0.00
2013-3-29,77,64,53,63,58,52,100,83,56,30.26,30.14,12,1,12,0.00
2013-3-30,78,67,58,66,62,57,99,84,61,30.16,29.98,12,1,14,0.00
2013-3-31,80,65,59,69,63,58,99,93,63,29.99,29.88,15,1,17,0.36
2013-4-1,82,68,59,67,63,59,100,85,54,30.09,29.96,6,0,6,0.00
2013-4-2,76,66,58,65,62,57,100,86,65,30.04,29.87,10,0,10,0.01
2013-4-3,64,55,49,63,54,48,99,96,88,30.10,29.82,13,1,17,0.19
2013-4-4,53,49,46,48,46,44,98,91,82,30.17,30.01,9,0,9,0.00
2013-4-5,75,57,42,56,48,41,98,75,41,30.24,30.08,6,0,7,0.00
2013-4-6,75,60,46,60,54,46,100,83,56,30.12,29.98,11,1,14,0.00
2013-4-7,80,68,55,65,61,54,98,82,56,30.02,29.89,11,1,11,0.00
2013-4-8,80,72,65,69,66,64,98,84,65,29.91,29.82,12,2,14,0.00
2013-4-9,82,74,67,73,70,66,96,88,74,29.85,29.77,13,2,14,0.00
2013-4-10,80,70,50,74,67,49,98,91,80,29.85,29.72,14,2,17,0.53
2013-4-11,70,52,43,55,48,43,99,88,49,29.92,29.76,11,0,12,2.66
2013-4-12,80,59,42,56,48,41,100,74,30,30.02,29.86,4,0,4,0.00
2013-4-13,80,63,46,59,53,45,100,75,38,30.01,29.83,10,0,10,0.00
2013-4-14,83,69,57,69,62,56,98,82,53,29.83,29.68,8,0,11,0.00
2013-4-15,87,73,61,73,68,60,100,87,59,29.88,29.75,8,1,10,0.00
2013-4-16,82,76,72,75,73,72,99,93,77,29.98,29.86,10,1,10,0.02
2013-4-17,78,75,73,75,73,72,98,92,84,29.98,29.81,14,2,14,0.01
2013-4-18,79,67,50,74,65,48,98,92,83,30.05,29.73,14,1,14,0.12
2013-4-19,66,52,42,48,41,37,95,70,34,30.23,30.04,9,0,11,0.00
2013-4-20,72,53,36,47,41,35,99,69,32,30.27,30.10,8,0,8,0.00
2013-4-21,77,58,43,57,50,42,99,76,45,30.21,30.07,8,0,9,0.00
2013-4-22,81,64,48,60,54,48,99,74,39,30.14,29.96,8,0,8,0.00
2013-4-23,81,68,53,71,64,52,100,89,67,30.00,29.91,12,0,13,0.00
2013-4-24,71,60,48,70,54,47,99,83,53,30.22,29.94,10,1,11,0.30
2013-4-25,74,62,51,54,50,46,92,67,38,30.33,30.20,7,0,8,0.00
2013-4-26,80,69,60,70,63,50,95,81,61,30.24,30.10,9,0,9,0.00
2013-4-27,81,72,66,74,69,65,99,91,74,30.14,29.97,10,0,11,0.00
2013-4-28,84,72,62,69,64,60,99,80,49,30.03,29.89,10,0,11,0.00
2013-4-29,85,70,57,70,64,57,99,85,54,29.96,29.83,8,0,8,0.00
2013-4-30,84,72,65,72,68,64,99,88,58,29.87,29.75,9,0,9,0.05
2013-5-1,85,73,66,72,68,64,99,86,63,29.89,29.81,8,0,8,0.00
2013-5-2,78,67,52,68,62,47,99,87,68,30.13,29.88,16,1,16,0.00
2013-5-3,67,54,43,47,42,34,93,68,32,30.14,30.02,16,1,16,0.00
2013-5-4,79,59,38,50,43,37,99,64,27,30.08,29.83,16,1,16,0.00
2013-5-5,70,56,43,50,46,41,95,71,43,30.08,29.94,12,0,12,0.00
2013-5-6,80,61,43,60,52,42,99,75,40,30.09,29.95,9,0,9,0.00
2013-5-7,86,70,53,63,58,52,99,71,40,30.06,29.95,9,0,9,0.00
2013-5-8,84,70,56,68,62,56,99,80,50,30.08,29.98,11,1,11,0.00
2013-5-9,76,70,62,73,68,61,99,94,87,30.03,29.88,8,0,10,0.01
2013-5-10,75,69,66,72,68,66,100,97,84,30.04,29.85,14,0,14,6.28
2013-5-11,86,73,65,72,67,62,100,84,55,30.09,29.90,5,0,6,0.03
2013-5-12,82,68,56,66,61,54,99,81,55,30.18,30.07,6,0,7,0.00
2013-5-13,83,65,48,58,53,46,100,71,32,30.30,30.17,7,0,8,0.00
2013-5-14,85,69,52,68,58,46,100,74,28,30.24,30.11,16,1,16,0.00
2013-5-15,78,68,58,70,65,58,100,89,73,30.16,29.94,10,0,10,0.00
2013-5-16,84,74,67,73,70,66,99,86,66,29.97,29.84,12,1,12,0.01
2013-5-17,87,77,71,77,73,70,98,87,69,29.96,29.86,11,0,12,0.00
2013-5-18,90,80,73,76,73,72,96,82,58,29.98,29.91,14,1,14,0.00
2013-5-19,89,80,74,76,74,71,94,81,58,29.93,29.84,14,1,14,0.00
2013-5-20,88,80,75,78,75,73,97,85,68,29.92,29.81,13,1,13,0.01
2013-5-21,88,80,75,77,75,73,94,85,68,29.87,29.73,12,1,14,0.00
2013-5-22,88,76,67,78,72,66,99,88,69,29.93,29.77,9,0,9,0.48
2013-5-23,89,79,70,79,74,69,100,88,65,30.06,29.91,7,0,7,0.00
2013-5-24,89,82,70,78,75,70,100,82,67,30.14,30.01,5,0,5,0.00
2013-5-25,89,89,89,77,77,77,68,68,68,30.09,30.09,0,0,4,0.00
2013-5-26,89,84,70,77,75,69,97,73,61,30.11,30.02,10,0,10,0.02
2013-5-27,88,77,65,76,71,65,100,83,59,30.06,29.94,10,1,10,0.00
2013-5-28,89,79,68,74,71,68,100,79,53,29.98,29.89,15,1,16,0.00
2013-5-29,82,78,74,75,74,73,96,87,76,29.89,29.83,9,1,10,0.00
2013-5-30,86,80,74,79,76,73,97,87,74,29.91,29.83,11,1,11,0.02
2013-5-31,90,82,76,79,77,76,98,87,68,29.92,29.85,10,1,11,0.01
2013-6-1,92,83,76,81,77,74,98,84,64,29.90,29.84,12,1,12,0.00
2013-6-2,85,76,68,76,72,68,99,90,67,30.03,29.88,12,0,12,0.32
2013-6-3,90,76,65,74,69,65,100,81,51,29.95,29.84,5,0,6,0.00
2013-6-4,93,80,69,77,72,68,98,79,50,29.93,29.81,6,0,7,0.00
2013-6-5,95,82,70,79,75,69,100,82,53,29.90,29.74,8,0,8,0.00
2013-6-6,90,77,67,80,73,66,100,90,65,29.91,29.73,12,0,12,1.12
2013-6-7,87,73,65,74,68,65,100,87,57,29.93,29.84,7,0,7,0.00
2013-6-8,90,76,65,75,70,64,100,83,55,29.93,29.83,9,0,10,0.00
2013-6-9,89,75,69,80,73,69,100,93,69,29.96,29.83,11,0,11,0.01
2013-6-10,93,80,68,80,74,68,100,85,59,29.99,29.94,7,0,7,0.01
2013-6-11,93,81,71,82,76,70,100,85,62,30.05,29.97,7,0,7,0.01
2013-6-12,94,83,71,80,76,71,100,83,56,30.07,29.96,10,0,10,0.00
2013-6-13,97,84,73,80,77,72,100,83,53,30.06,29.90,7,0,7,0.00
2013-6-14,96,85,72,84,78,71,100,83,58,30.01,29.85,8,0,8,0.04
2013-6-15,95,80,71,82,76,71,100,88,63,29.99,29.89,6,0,6,0.19
2013-6-16,94,82,71,81,76,71,100,83,59,30.04,29.93,7,0,7,0.00
2013-6-17,95,83,74,79,76,73,100,80,51,30.01,29.89,12,1,12,0.00
2013-6-18,94,80,72,79,75,72,99,87,55,29.98,29.89,10,1,10,0.65
2013-6-19,86,77,72,81,75,72,100,94,75,30.02,29.93,11,0,11,1.05
2013-6-20,94,81,73,81,77,73,100,88,57,30.09,29.98,7,0,7,0.25
2013-6-21,94,81,72,80,76,72,100,87,58,30.10,30.02,6,0,7,0.00
2013-6-22,92,81,71,80,76,71,100,85,62,30.07,29.95,7,0,7,0.00
2013-6-23,92,81,71,80,76,71,100,85,62,30.04,29.95,9,0,10,0.00
2013-6-24,93,82,72,81,76,72,100,84,59,30.07,29.98,9,0,13,0.00
2013-6-25,94,83,75,80,77,74,99,83,59,30.06,29.94,8,0,9,0.00
2013-6-26,95,84,76,80,77,73,97,80,53,30.02,29.92,8,0,10,0.00
2013-6-27,97,84,72,80,76,71,99,80,49,30.02,29.91,8,0,8,0.00
2013-6-28,98,84,74,81,77,74,98,80,52,29.98,29.78,10,0,10,0.00
2013-6-29,101,86,75,80,75,71,92,72,43,29.82,29.69,11,0,11,0.00
2013-6-30,95,81,66,74,68,63,99,69,38,29.84,29.76,11,0,14,0.00
2013-7-1,89,76,62,73,67,61,98,77,53,29.94,29.84,7,0,7,0.00
2013-7-2,92,77,64,72,67,62,99,77,40,30.00,29.92,9,0,9,0.36
2013-7-3,92,77,66,74,69,63,100,79,38,30.03,29.92,4,0,5,0.00
2013-7-4,92,78,66,76,70,65,99,79,49,29.99,29.90,5,0,6,0.00
2013-7-5,94,80,66,77,70,64,99,75,40,29.98,29.87,8,0,8,0.00
2013-7-6,93,81,71,77,74,70,99,80,54,29.96,29.86,6,0,6,0.00
2013-7-7,89,78,73,80,76,72,99,92,70,30.01,29.91,7,0,7,0.12
2013-7-8,89,80,72,80,76,72,100,90,73,30.13,30.01,11,0,11,0.00
2013-7-9,97,83,71,81,76,71,100,82,50,30.15,30.04,8,0,11,0.00
2013-7-10,96,84,74,79,76,73,99,80,52,30.09,29.95,8,0,8,0.00
2013-7-11,95,84,75,79,77,74,99,80,56,30.00,29.89,8,0,10,0.00
2013-7-12,99,85,75,80,76,72,97,76,46,29.97,29.84,9,0,9,0.00
2013-7-13,99,83,72,78,71,57,99,72,28,29.96,29.84,7,0,8,0.00
2013-7-14,88,78,70,77,71,66,91,80,61,29.97,29.88,10,0,10,0.00
2013-7-15,92,78,71,79,74,67,99,89,61,30.07,29.92,7,0,8,0.03
2013-7-16,88,76,72,79,74,72,99,95,71,30.14,30.04,8,0,8,0.33
2013-7-17,88,77,73,82,75,72,100,96,77,30.21,30.10,6,0,6,1.48
2013-7-18,95,80,69,80,74,69,100,83,51,30.15,29.98,8,0,8,0.02
2013-7-19,87,75,70,79,73,70,100,92,73,30.06,29.94,7,0,8,0.00
2013-7-20,89,77,69,78,73,68,100,90,62,29.98,29.89,6,0,9,0.00
2013-7-21,89,79,72,80,75,72,100,89,69,30.00,29.92,10,0,11,0.01
2013-7-22,93,83,74,82,78,74,100,84,63,30.03,29.95,13,1,13,0.01
2013-7-23,94,84,76,81,78,75,99,84,61,30.04,29.90,11,1,12,0.00
2013-7-24,93,83,73,80,77,73,100,84,58,30.02,29.87,11,1,11,0.00
2013-7-25,96,85,78,81,78,75,97,80,54,30.03,29.93,8,0,10,0.00
2013-7-26,96,84,75,80,77,72,99,81,47,30.05,29.91,9,0,9,0.00
2013-7-27,90,82,76,82,78,74,97,86,71,29.93,29.86,13,1,14,0.13
2013-7-28,92,79,72,81,76,72,99,92,67,29.99,29.90,8,0,8,0.42
2013-7-29,95,82,72,80,75,71,100,81,48,30.09,29.98,13,0,13,0.00
2013-7-30,96,82,71,80,75,70,100,82,46,30.13,30.03,8,0,8,0.00
2013-7-31,97,83,71,79,76,71,100,81,49,30.10,29.94,9,0,10,0.00
2013-8-1,99,87,76,81,78,74,98,76,48,30.03,29.89,9,0,9,0.00
2013-8-2,98,89,79,79,77,75,93,70,52,29.98,29.90,6,0,6,0.00
2013-8-3,98,84,74,80,77,73,100,80,47,30.05,29.96,8,0,8,0.00
2013-8-4,100,84,75,81,78,74,100,85,47,30.09,29.97,12,0,12,0.18
2013-8-5,98,85,76,80,77,74,100,80,49,30.05,29.92,9,0,10,0.00
2013-8-6,99,86,74,80,78,74,100,79,50,29.98,29.87,11,1,11,0.00
2013-8-7,100,90,81,80,78,74,92,69,47,29.97,29.84,11,1,16,0.00
2013-8-8,99,85,75,80,76,73,99,79,44,29.95,29.85,8,0,8,0.00
2013-8-9,102,85,70,80,76,70,100,78,44,29.98,29.85,7,0,7,0.00
2013-8-10,94,80,74,82,77,73,99,91,61,30.05,29.95,10,0,10,0.18
2013-8-11,92,79,72,82,76,72,100,92,63,30.07,30.01,5,0,5,0.37
2013-8-12,96,84,74,81,77,74,100,81,52,30.08,29.95,9,0,9,0.00
2013-8-13,99,86,77,80,78,74,99,78,49,30.04,29.89,10,1,10,0.00
2013-8-14,94,81,74,80,77,73,99,88,53,30.00,29.89,10,0,10,1.76
2013-8-15,88,77,71,79,74,70,100,92,70,30.03,29.91,4,0,5,0.01
2013-8-16,93,80,68,77,73,68,99,81,53,29.99,29.90,5,0,5,0.00
2013-8-17,91,78,68,73,69,65,93,75,44,30.00,29.91,7,0,7,0.00
2013-8-18,93,79,69,76,71,67,98,79,46,30.03,29.95,8,0,8,0.00
2013-8-19,96,80,68,75,70,64,99,76,39,30.05,29.92,6,0,6,0.00
2013-8-20,91,77,69,79,74,68,99,91,59,30.03,29.96,6,0,6,0.25
2013-8-21,96,82,71,79,74,71,100,81,47,30.09,29.97,6,0,7,0.00
2013-8-22,97,83,73,80,76,72,99,81,49,30.07,29.93,7,0,7,0.00
2013-8-23,99,84,73,80,76,73,100,80,46,30.01,29.87,6,0,7,0.00
2013-8-24,96,84,74,77,74,72,99,76,49,30.03,29.94,8,0,8,0.00
2013-8-25,90,80,75,78,75,73,95,85,67,30.12,30.02,9,0,10,0.00
2013-8-26,85,76,73,78,74,72,99,95,75,30.15,30.07,8,0,8,0.51
2013-8-27,94,79,71,78,74,71,100,86,57,30.13,30.01,6,0,7,0.01
2013-8-28,98,83,70,78,74,70,100,78,45,30.09,29.96,8,0,8,0.00
2013-8-29,99,84,74,79,75,70,99,77,41,30.06,29.92,10,0,11,0.00
2013-8-30,98,84,73,80,76,73,99,79,48,30.02,29.89,8,0,8,0.00
2013-8-31,98,83,72,79,74,69,100,78,42,29.95,29.83,6,0,6,0.00
2013-9-1,97,83,71,78,74,70,100,77,45,29.95,29.82,8,0,8,0.00
2013-9-2,100,85,73,80,76,70,100,77,40,29.98,29.82,12,0,12,0.00
2013-9-3,100,83,74,80,75,72,97,80,43,29.97,29.85,5,0,11,0.00
2013-9-4,98,80,71,80,75,71,99,86,52,30.04,29.92,7,0,7,0.00
2013-9-5,95,80,72,82,76,72,100,89,58,30.09,29.98,10,0,13,0.02
2013-9-6,95,81,71,81,76,71,100,86,57,30.09,29.97,9,0,9,0.01
2013-9-7,91,78,72,80,74,72,100,89,60,30.04,29.94,8,0,8,0.00
2013-9-8,96,81,69,78,73,69,100,81,49,30.00,29.89,6,0,6,0.00
2013-9-9,95,80,70,78,74,70,100,83,48,30.01,29.93,9,0,9,0.00
2013-9-10,94,80,70,78,73,70,100,81,51,30.08,29.98,8,0,9,0.00
2013-9-11,94,81,70,77,73,68,99,79,44,30.09,29.99,6,0,7,0.00
2013-9-12,98,83,72,77,72,65,99,73,36,30.04,29.89,9,0,9,0.00
2013-9-13,100,83,69,76,72,69,100,74,39,29.94,29.78,8,0,8,0.00
2013-9-14,95,81,74,76,74,72,98,81,48,29.94,29.83,8,0,8,0.00
2013-9-15,96,82,71,78,74,69,98,80,46,30.01,29.92,9,0,9,0.00
2013-9-16,95,82,71,78,74,68,99,80,44,30.05,29.95,4,0,5,0.00
2013-9-17,98,83,72,78,74,72,100,79,44,30.06,29.92,9,0,9,0.00
2013-9-18,96,82,72,78,74,71,99,79,50,30.01,29.90,8,0,9,0.00
2013-9-19,92,79,74,83,76,73,99,90,63,29.97,29.87,10,0,11,2.55
2013-9-20,78,76,73,78,76,73,100,100,99,29.93,29.73,10,0,11,3.19
2013-9-21,76,72,68,73,71,67,100,96,86,29.82,29.72,7,0,7,0.23
2013-9-22,86,73,65,68,62,56,99,71,39,29.85,29.73,8,0,8,0.00
2013-9-23,90,76,63,76,68,59,94,78,58,29.83,29.73,5,0,6,0.00
2013-9-24,92,80,70,81,76,70,98,87,55,29.85,29.76,11,0,11,0.00
2013-9-25,96,77,64,74,65,53,100,74,25,29.86,29.76,7,0,7,0.00
2013-9-26,94,76,62,76,67,62,100,80,40,29.93,29.81,6,0,6,0.00
2013-9-27,92,78,67,76,71,66,100,82,50,29.97,29.89,7,0,7,0.00
2013-9-28,91,83,73,77,75,71,97,78,60,30.01,29.92,10,1,10,0.00
2013-9-29,84,75,71,78,74,71,100,96,82,30.02,29.90,12,0,12,1.73
2013-9-30,79,73,72,75,72,71,100,98,86,29.91,29.83,3,0,5,0.35
2013-10-1,87,76,71,80,74,71,100,96,75,29.95,29.87,12,0,12,0.68
2013-10-2,89,78,72,79,75,72,100,92,66,30.01,29.89,7,0,7,0.02
2013-10-3,89,78,70,79,74,70,100,90,65,29.97,29.88,6,0,6,0.00
2013-10-4,91,78,69,81,75,69,100,91,69,29.96,29.88,9,0,9,0.00
2013-10-5,93,80,70,80,76,70,100,90,63,29.94,29.83,9,0,10,0.09
2013-10-6,78,64,54,69,58,51,97,82,40,30.07,29.92,8,0,8,0.00
2013-10-7,81,63,50,61,54,46,98,75,41,30.12,30.01,7,0,7,0.00
2013-10-8,81,64,51,65,57,51,100,82,49,30.10,29.99,5,0,5,0.00
2013-10-9,84,66,52,67,59,51,100,83,49,30.09,30.00,5,0,6,0.00
2013-10-10,86,69,55,70,63,55,100,85,57,30.08,29.95,5,0,5,0.00
2013-10-11,89,73,60,76,69,60,100,88,60,29.99,29.89,7,0,7,0.00
2013-10-12,90,77,70,80,74,70,100,91,68,30.09,29.92,7,0,7,0.16
2013-10-13,77,72,68,73,71,68,100,96,87,30.16,30.04,6,0,6,0.00
2013-10-14,84,75,70,76,72,70,100,93,72,30.11,29.98,5,0,5,0.00
2013-10-15,88,75,68,78,72,68,100,92,65,30.00,29.90,6,0,6,0.15
2013-10-16,81,73,67,76,71,66,100,94,79,29.98,29.89,4,0,4,0.02
2013-10-17,77,65,53,66,62,53,100,90,59,30.07,29.97,5,0,5,0.03
2013-10-18,70,60,52,65,58,52,100,94,78,30.05,29.91,4,0,4,0.55
2013-10-19,72,61,48,61,57,47,100,88,53,30.09,29.94,9,0,9,0.19
2013-10-20,75,57,42,60,51,42,100,84,48,30.11,29.96,5,0,5,0.00
2013-10-21,73,62,52,68,61,51,100,94,82,30.02,29.93,5,0,5,0.00
2013-10-22,75,64,51,65,60,50,99,90,58,30.08,29.97,9,0,9,0.00
2013-10-23,82,61,46,60,53,46,100,79,35,30.14,30.07,4,0,4,0.00
2013-10-24,86,64,49,65,56,48,100,81,40,30.22,30.11,7,0,7,0.00
2013-10-25,74,60,51,59,54,49,99,82,54,30.38,30.21,8,0,8,0.00
2013-10-26,79,60,45,65,55,45,99,86,54,30.29,30.11,7,0,7,0.00
2013-10-27,78,66,59,71,64,59,100,93,68,30.11,30.00,7,0,8,0.31
2013-10-28,83,69,58,73,66,58,100,91,70,30.14,30.02,5,0,5,0.00
2013-10-29,84,72,65,74,69,65,100,91,68,30.15,30.07,8,0,8,0.00
2013-10-30,75,72,68,75,71,68,100,99,97,30.12,29.87,11,0,11,1.25
2013-10-31,77,70,62,76,70,62,100,99,96,29.89,29.73,18,1,18,4.56
2013-11-1,79,65,56,64,60,56,100,87,49,29.95,29.83,5,0,5,0.01
2013-11-2,73,60,45,61,52,42,99,78,35,30.22,29.94,8,0,10,0.00
2013-11-3,68,53,43,53,47,43,100,83,48,30.25,30.11,6,0,6,0.00
2013-11-4,75,62,46,64,57,45,100,83,63,30.14,30.05,8,0,8,0.00
2013-11-5,79,70,62,72,67,61,97,90,76,30.08,30.00,9,1,9,0.00
2013-11-6,84,69,51,74,66,49,98,92,73,30.24,30.00,10,0,10,0.22
2013-11-7,68,54,44,50,45,41,95,75,39,30.38,30.23,9,0,10,0.00
2013-11-8,68,54,44,52,46,41,98,80,42,30.38,30.19,7,0,7,0.00
2013-11-9,70,58,48,57,52,47,98,82,57,30.24,30.16,5,0,5,0.00
2013-11-10,75,58,48,62,54,46,99,86,61,30.30,30.19,6,0,6,0.00
2013-11-11,76,59,48,61,54,48,100,86,53,30.26,30.14,4,0,4,0.00
2013-11-12,72,54,41,62,50,33,100,86,66,30.58,30.22,10,0,12,0.00
2013-11-13,58,41,30,38,31,27,95,71,35,30.62,30.42,8,0,9,0.00
2013-11-14,60,44,29,46,38,28,98,84,50,30.42,30.10,4,0,4,0.00
2013-11-15,78,61,47,67,57,45,99,87,65,30.10,29.92,5,0,6,0.00
2013-11-16,79,69,54,74,68,54,100,96,83,29.97,29.83,8,1,8,0.03
2013-11-17,85,77,72,77,75,72,100,93,75,29.94,29.80,13,1,14,0.15
2013-11-18,74,68,58,74,60,45,100,79,45,30.13,29.94,8,0,9,0.24
2013-11-19,69,56,45,52,46,43,97,72,46,30.17,30.05,7,0,7,0.00
2013-11-20,71,56,40,60,50,38,95,79,56,30.08,29.97,5,0,5,0.00
2013-11-21,78,69,62,72,67,60,99,93,82,30.11,30.01,9,1,10,0.00
2013-11-22,72,62,49,72,62,48,100,99,93,30.25,30.08,10,0,10,0.10
2013-11-23,51,48,42,51,46,38,100,96,85,30.40,30.23,9,0,9,0.14
2013-11-24,51,43,38,39,34,30,92,72,50,30.44,30.31,9,0,10,0.00
2013-11-25,41,39,37,41,38,36,99,96,89,30.31,29.94,8,0,8,2.01
2013-11-26,41,39,37,40,39,37,100,99,98,30.23,29.94,5,0,10,1.29
2013-11-27,51,38,29,37,33,28,100,86,51,30.43,30.23,10,0,11,0.00
2013-11-28,53,37,29,41,33,28,99,88,57,30.51,30.38,2,0,3,0.00
2013-11-29,62,40,26,40,33,26,99,81,36,30.53,30.40,4,0,4,0.01
2013-11-30,69,48,32,53,43,31,99,86,52,30.42,30.24,3,0,3,0.00
2013-12-1,70,58,44,60,54,44,99,90,70,30.24,29.96,8,0,8,0.00
2013-12-2,78,66,58,66,62,58,99,89,65,29.97,29.69,12,1,12,0.00
2013-12-3,80,69,59,70,66,59,100,91,67,29.74,29.62,13,1,15,0.00
2013-12-4,80,73,68,73,71,68,99,94,78,29.84,29.72,11,1,11,0.00
2013-12-5,79,63,44,75,62,44,98,95,81,30.01,29.81,6,0,13,0.01
2013-12-6,44,42,38,44,41,36,99,96,89,30.34,29.96,6,0,6,0.05
2013-12-7,38,36,34,36,34,33,94,91,88,30.39,30.27,3,0,7,0.00
2013-12-8,45,41,36,43,38,33,97,90,83,30.30,30.06,4,0,4,0.00
2013-12-9,45,43,39,44,43,38,99,98,96,30.28,30.06,6,0,6,0.04
2013-12-10,47,38,31,38,35,30,98,87,65,30.44,30.28,6,0,6,0.00
2013-12-11,52,42,30,44,38,30,99,87,68,30.51,30.35,3,0,4,0.00
2013-12-12,55,41,34,42,36,33,98,84,51,30.56,30.36,6,0,7,0.00
2013-12-13,61,48,35,61,45,33,100,89,71,30.36,29.87,5,0,5,0.26
2013-12-14,61,52,42,61,50,37,100,92,79,30.25,29.85,12,0,12,0.00
2013-12-15,57,41,30,42,35,29,98,83,51,30.37,30.25,7,0,7,0.00
2013-12-16,64,42,28,44,36,27,99,82,39,30.35,30.23,5,0,8,0.00
2013-12-17,71,47,30,52,41,30,100,84,41,30.35,30.24,8,0,8,0.00
2013-12-18,70,50,34,55,44,34,100,84,45,30.34,30.15,5,0,5,0.00
2013-12-19,73,61,47,68,59,46,100,93,76,30.15,29.92,13,1,13,0.07
2013-12-20,75,72,69,72,70,68,99,95,90,29.95,29.80,12,1,12,0.11
2013-12-21,75,67,52,73,66,52,100,98,81,29.82,29.56,15,2,19,1.60
2013-12-22,60,52,34,59,50,33,100,95,82,30.32,29.80,9,0,9,0.03
2013-12-23,52,38,30,39,34,30,98,85,56,30.53,30.31,7,0,8,0.00
2013-12-24,58,38,26,39,32,25,99,83,40,30.58,30.35,5,0,5,0.00
2013-12-25,62,45,30,45,37,30,99,79,35,30.40,30.29,4,0,4,0.00
2013-12-26,63,49,38,48,43,37,99,81,48,30.42,30.28,4,0,5,0.00
2013-12-27,54,47,43,44,42,39,97,81,60,30.45,30.32,4,0,5,0.00
2013-12-28,56,47,38,45,41,38,98,80,60,30.32,30.03,4,0,4,0.00
2013-12-29,67,48,33,50,41,33,100,80,37,30.16,30.01,5,0,5,0.00
2013-12-30,50,43,38,47,39,36,93,85,77,30.40,30.14,5,0,5,0.00
2013-12-31,49,42,38,42,39,35,93,86,68,30.43,30.28,4,0,4,0.00
2014-1-1,61,52,44,56,49,40,96,91,83,30.29,30.03,7,0,7,0.00
2014-1-2,57,46,31,56,37,25,98,72,40,30.43,30.05,12,0,12,0.00